NCAR-RAP Real-Time Weather Data

Output produced by METARs form (12 May 2021  11:38 UTC)
found at http://weather.rap.ucar.edu/surface/
 
KELP 121051Z 08004KT 10SM CLR 16/08 A3014 RMK AO2 SLP141 T01560083
KELP 120951Z 05006KT 10SM CLR 16/08 A3012 RMK AO2 SLP134 T01560083
KELP 120851Z 04008KT 10SM CLR 17/08 A3010 RMK AO2 SLP124 T01670083 51018
KELP 120751Z 06004KT 10SM CLR 17/08 A3008 RMK AO2 SLP120 T01720083
KELP 120651Z 08007KT 10SM CLR 18/08 A3007 RMK AO2 SLP116 T01780083 403170178
KELP 120551Z 09010G20KT 10SM CLR 20/08 A3004 RMK AO2 SLP102 T02000078 10311 20200 53027
KELP 120451Z 06010G16KT 10SM CLR 23/M11 A3001 RMK AO2 SLP088 T02281106
KELP 120351Z 00000KT 10SM CLR 24/M12 A2997 RMK AO2 SLP076 T02441117
KELP 120251Z 00000KT 10SM CLR 28/M11 A2995 RMK AO2 SLP065 T02831111 53010
KELP 120151Z 25005KT 10SM FEW150 28/M12 A2992 RMK AO2 SLP058 T02831117
KELP 120051Z 30008KT 10SM CLR 31/M13 A2992 RMK AO2 SLP054 T03061128
KELP 112351Z 27013G21KT 10SM CLR 31/M13 A2991 RMK AO2 SLP052 T03061128 10317 20283 56009
KELP 112251Z 26016G23KT 10SM FEW160 31/M13 A2992 RMK AO2 SLP052 T03111128
KELP 112151Z 27009KT 10SM FEW150 31/M09 A2993 RMK AO2 SLP058 T03111089